sensor_id;sensor_type;location;lat;lon;timestamp;pressure;altitude;pressure_sealevel;temperature;humidity
38303;BME280;24103;42.454;27.400;2023-05-15T00:00:38;101022.81;;;15.13;90.60
38303;BME280;24103;42.454;27.400;2023-05-15T00:03:04;101029.94;;;15.13;90.38
38303;BME280;24103;42.454;27.400;2023-05-15T00:05:29;101023.03;;;15.10;89.05
38303;BME280;24103;42.454;27.400;2023-05-15T00:07:55;101029.19;;;15.10;86.81
38303;BME280;24103;42.454;27.400;2023-05-15T00:10:20;101025.06;;;15.06;85.66
38303;BME280;24103;42.454;27.400;2023-05-15T00:12:46;101018.31;;;15.01;83.58
38303;BME280;24103;42.454;27.400;2023-05-15T00:15:11;101008.00;;;14.96;82.26
38303;BME280;24103;42.454;27.400;2023-05-15T00:17:37;101013.84;;;15.01;81.21
38303;BME280;24103;42.454;27.400;2023-05-15T00:20:02;101010.13;;;15.04;79.74
38303;BME280;24103;42.454;27.400;2023-05-15T00:22:29;101017.28;;;15.03;78.74
38303;BME280;24103;42.454;27.400;2023-05-15T00:24:55;101004.91;;;15.02;78.00
38303;BME280;24103;42.454;27.400;2023-05-15T00:27:20;101007.38;;;15.05;77.54
38303;BME280;24103;42.454;27.400;2023-05-15T00:29:45;101004.41;;;15.10;75.87
38303;BME280;24103;42.454;27.400;2023-05-15T00:32:11;100998.19;;;15.09;75.79
38303;BME280;24103;42.454;27.400;2023-05-15T00:34:36;100995.00;;;15.04;76.59
38303;BME280;24103;42.454;27.400;2023-05-15T00:37:02;101000.69;;;15.00;76.81
38303;BME280;24103;42.454;27.400;2023-05-15T00:39:27;101003.03;;;14.91;77.41
38303;BME280;24103;42.454;27.400;2023-05-15T00:41:53;101010.13;;;14.91;78.08
38303;BME280;24103;42.454;27.400;2023-05-15T00:44:20;101015.56;;;14.89;77.89
38303;BME280;24103;42.454;27.400;2023-05-15T00:46:47;101012.78;;;14.91;78.64
38303;BME280;24103;42.454;27.400;2023-05-15T00:49:13;101009.09;;;14.93;78.63
38303;BME280;24103;42.454;27.400;2023-05-15T00:51:40;101001.19;;;14.92;78.65
38303;BME280;24103;42.454;27.400;2023-05-15T00:54:07;100998.94;;;14.86;79.12
38303;BME280;24103;42.454;27.400;2023-05-15T00:56:33;100991.38;;;14.80;79.98
38303;BME280;24103;42.454;27.400;2023-05-15T00:59:01;100987.56;;;14.84;80.46
38303;BME280;24103;42.454;27.400;2023-05-15T01:01:27;100971.50;;;14.85;79.84
38303;BME280;24103;42.454;27.400;2023-05-15T01:03:58;100958.84;;;14.89;78.99
38303;BME280;24103;42.454;27.400;2023-05-15T01:06:23;100962.97;;;14.93;78.29
38303;BME280;24103;42.454;27.400;2023-05-15T01:08:49;100954.88;;;14.95;77.14
38303;BME280;24103;42.454;27.400;2023-05-15T01:11:16;100955.75;;;14.95;76.12
38303;BME280;24103;42.454;27.400;2023-05-15T01:13:42;100948.63;;;14.96;76.49
38303;BME280;24103;42.454;27.400;2023-05-15T01:16:09;100941.69;;;14.93;76.64
38303;BME280;24103;42.454;27.400;2023-05-15T01:18:35;100949.66;;;14.93;75.89
38303;BME280;24103;42.454;27.400;2023-05-15T01:24:07;100942.97;;;14.87;72.08
38303;BME280;24103;42.454;27.400;2023-05-15T01:29:31;100927.53;;;14.80;70.25
38303;BME280;24103;42.454;27.400;2023-05-15T01:32:03;100928.63;;;14.77;70.76
38303;BME280;24103;42.454;27.400;2023-05-15T01:34:39;100937.56;;;14.76;70.91
38303;BME280;24103;42.454;27.400;2023-05-15T01:37:09;100919.03;;;14.74;70.52
38303;BME280;24103;42.454;27.400;2023-05-15T01:39:37;100912.66;;;14.64;70.02
38303;BME280;24103;42.454;27.400;2023-05-15T01:42:08;100911.19;;;14.60;70.31
38303;BME280;24103;42.454;27.400;2023-05-15T01:44:37;100903.59;;;14.54;70.26
38303;BME280;24103;42.454;27.400;2023-05-15T01:47:18;100898.69;;;14.48;70.99
38303;BME280;24103;42.454;27.400;2023-05-15T01:49:46;100909.00;;;14.40;71.62
38303;BME280;24103;42.454;27.400;2023-05-15T01:52:20;100891.56;;;14.35;71.51
38303;BME280;24103;42.454;27.400;2023-05-15T01:54:48;100900.69;;;14.31;71.79
38303;BME280;24103;42.454;27.400;2023-05-15T01:57:14;100901.53;;;14.32;70.93
38303;BME280;24103;42.454;27.400;2023-05-15T01:59:41;100899.22;;;14.27;69.97
38303;BME280;24103;42.454;27.400;2023-05-15T02:02:09;100903.75;;;14.25;69.43
38303;BME280;24103;42.454;27.400;2023-05-15T02:04:37;100904.72;;;14.24;68.86
38303;BME280;24103;42.454;27.400;2023-05-15T02:07:03;100899.72;;;14.19;69.71
38303;BME280;24103;42.454;27.400;2023-05-15T02:09:31;100910.56;;;14.16;70.31
38303;BME280;24103;42.454;27.400;2023-05-15T02:12:01;100900.75;;;14.17;70.25
38303;BME280;24103;42.454;27.400;2023-05-15T02:14:30;100895.34;;;14.18;69.74
38303;BME280;24103;42.454;27.400;2023-05-15T02:16:56;100887.72;;;14.14;68.60
38303;BME280;24103;42.454;27.400;2023-05-15T02:19:21;100889.19;;;14.18;68.27
38303;BME280;24103;42.454;27.400;2023-05-15T02:21:47;100891.09;;;14.16;69.05
38303;BME280;24103;42.454;27.400;2023-05-15T02:24:13;100888.66;;;14.13;69.71
38303;BME280;24103;42.454;27.400;2023-05-15T02:29:47;100880.78;;;14.11;69.95
38303;BME280;24103;42.454;27.400;2023-05-15T02:32:32;100872.56;;;14.01;70.98
38303;BME280;24103;42.454;27.400;2023-05-15T02:35:16;100884.25;;;13.86;71.77
38303;BME280;24103;42.454;27.400;2023-05-15T02:37:48;100886.53;;;13.78;72.65
38303;BME280;24103;42.454;27.400;2023-05-15T02:40:15;100888.94;;;13.68;73.34
38303;BME280;24103;42.454;27.400;2023-05-15T02:42:42;100875.53;;;13.57;74.45
38303;BME280;24103;42.454;27.400;2023-05-15T02:45:09;100864.00;;;13.43;75.67
38303;BME280;24103;42.454;27.400;2023-05-15T02:47:35;100871.59;;;13.35;76.13
38303;BME280;24103;42.454;27.400;2023-05-15T02:50:01;100868.84;;;13.37;76.09
38303;BME280;24103;42.454;27.400;2023-05-15T02:52:27;100870.44;;;13.39;75.60
38303;BME280;24103;42.454;27.400;2023-05-15T02:54:52;100872.53;;;13.34;73.85
38303;BME280;24103;42.454;27.400;2023-05-15T02:57:18;100867.78;;;13.39;73.71
38303;BME280;24103;42.454;27.400;2023-05-15T02:59:43;100872.25;;;13.39;74.01
38303;BME280;24103;42.454;27.400;2023-05-15T03:02:09;100861.53;;;13.40;73.78
38303;BME280;24103;42.454;27.400;2023-05-15T03:04:34;100857.34;;;13.51;73.78
38303;BME280;24103;42.454;27.400;2023-05-15T03:07:00;100864.31;;;13.66;74.03
38303;BME280;24103;42.454;27.400;2023-05-15T03:09:25;100854.56;;;13.79;73.37
38303;BME280;24103;42.454;27.400;2023-05-15T03:11:51;100866.94;;;13.93;73.50
38303;BME280;24103;42.454;27.400;2023-05-15T03:14:16;100856.75;;;14.13;72.74
38303;BME280;24103;42.454;27.400;2023-05-15T03:16:42;100862.09;;;14.38;71.32
38303;BME280;24103;42.454;27.400;2023-05-15T03:19:07;100861.28;;;14.77;70.59
38303;BME280;24103;42.454;27.400;2023-05-15T03:21:33;100860.47;;;15.13;68.83
38303;BME280;24103;42.454;27.400;2023-05-15T03:23:59;100847.56;;;15.44;66.72
38303;BME280;24103;42.454;27.400;2023-05-15T03:26:25;100842.81;;;15.60;65.86
38303;BME280;24103;42.454;27.400;2023-05-15T03:28:52;100844.63;;;15.60;64.64
38303;BME280;24103;42.454;27.400;2023-05-15T03:31:17;100847.69;;;15.66;63.49
38303;BME280;24103;42.454;27.400;2023-05-15T03:33:43;100841.03;;;15.72;62.34
38303;BME280;24103;42.454;27.400;2023-05-15T03:36:10;100840.38;;;15.81;62.16
38303;BME280;24103;42.454;27.400;2023-05-15T03:38:35;100832.09;;;15.97;61.80
38303;BME280;24103;42.454;27.400;2023-05-15T03:41:01;100832.63;;;16.14;61.96
38303;BME280;24103;42.454;27.400;2023-05-15T03:43:26;100813.81;;;16.27;61.12
38303;BME280;24103;42.454;27.400;2023-05-15T03:45:52;100817.00;;;16.43;60.12
38303;BME280;24103;42.454;27.400;2023-05-15T03:48:17;100834.50;;;16.70;59.14
38303;BME280;24103;42.454;27.400;2023-05-15T03:50:44;100838.88;;;16.93;56.57
38303;BME280;24103;42.454;27.400;2023-05-15T03:53:09;100848.63;;;17.27;55.13
38303;BME280;24103;42.454;27.400;2023-05-15T03:55:35;100859.16;;;17.51;53.88
38303;BME280;24103;42.454;27.400;2023-05-15T03:58:00;100862.16;;;17.58;52.55
38303;BME280;24103;42.454;27.400;2023-05-15T04:00:26;100867.22;;;17.72;52.49
38303;BME280;24103;42.454;27.400;2023-05-15T04:02:52;100869.69;;;17.85;52.16
38303;BME280;24103;42.454;27.400;2023-05-15T04:05:17;100856.19;;;17.98;51.42
38303;BME280;24103;42.454;27.400;2023-05-15T04:07:44;100865.41;;;18.05;50.92
38303;BME280;24103;42.454;27.400;2023-05-15T04:10:09;100868.31;;;18.23;50.96
38303;BME280;24103;42.454;27.400;2023-05-15T04:12:35;100880.84;;;18.65;50.28
38303;BME280;24103;42.454;27.400;2023-05-15T04:15:18;100880.81;;;19.36;49.21
38303;BME280;24103;42.454;27.400;2023-05-15T04:17:43;100872.19;;;20.59;47.30
38303;BME280;24103;42.454;27.400;2023-05-15T04:20:12;100863.16;;;21.44;45.25
38303;BME280;24103;42.454;27.400;2023-05-15T04:22:39;100849.53;;;22.35;43.79
38303;BME280;24103;42.454;27.400;2023-05-15T04:25:05;100839.59;;;23.05;41.75
38303;BME280;24103;42.454;27.400;2023-05-15T04:27:30;100831.41;;;23.14;40.85
38303;BME280;24103;42.454;27.400;2023-05-15T04:29:55;100824.25;;;22.97;39.62
38303;BME280;24103;42.454;27.400;2023-05-15T04:32:21;100830.97;;;22.06;39.77
38303;BME280;24103;42.454;27.400;2023-05-15T04:34:47;100842.69;;;21.61;40.60
38303;BME280;24103;42.454;27.400;2023-05-15T04:37:12;100840.31;;;21.30;41.25
38303;BME280;24103;42.454;27.400;2023-05-15T04:39:37;100843.75;;;21.04;41.63
38303;BME280;24103;42.454;27.400;2023-05-15T04:42:03;100835.19;;;20.53;42.15
38303;BME280;24103;42.454;27.400;2023-05-15T04:44:29;100833.88;;;20.10;43.03
38303;BME280;24103;42.454;27.400;2023-05-15T04:46:55;100830.38;;;19.90;43.47
38303;BME280;24103;42.454;27.400;2023-05-15T04:49:20;100844.03;;;19.67;44.29
38303;BME280;24103;42.454;27.400;2023-05-15T04:51:45;100845.69;;;19.29;44.73
38303;BME280;24103;42.454;27.400;2023-05-15T04:54:11;100851.06;;;19.29;45.00
38303;BME280;24103;42.454;27.400;2023-05-15T04:56:36;100857.44;;;19.48;45.11
38303;BME280;24103;42.454;27.400;2023-05-15T04:59:02;100858.25;;;19.48;45.25
38303;BME280;24103;42.454;27.400;2023-05-15T05:01:28;100858.53;;;19.26;45.99
38303;BME280;24103;42.454;27.400;2023-05-15T05:03:53;100860.34;;;19.25;46.21
38303;BME280;24103;42.454;27.400;2023-05-15T05:06:19;100858.34;;;19.08;46.93
38303;BME280;24103;42.454;27.400;2023-05-15T05:08:44;100850.94;;;18.90;47.72
38303;BME280;24103;42.454;27.400;2023-05-15T05:11:10;100844.38;;;18.73;48.24
38303;BME280;24103;42.454;27.400;2023-05-15T05:13:35;100841.59;;;18.54;48.70
38303;BME280;24103;42.454;27.400;2023-05-15T05:16:01;100850.13;;;18.38;49.00
38303;BME280;24103;42.454;27.400;2023-05-15T05:18:28;100836.63;;;18.18;49.35
38303;BME280;24103;42.454;27.400;2023-05-15T05:21:02;100835.06;;;18.16;49.46
38303;BME280;24103;42.454;27.400;2023-05-15T05:23:28;100850.53;;;18.12;50.11
38303;BME280;24103;42.454;27.400;2023-05-15T05:25:54;100842.31;;;18.04;50.94
38303;BME280;24103;42.454;27.400;2023-05-15T05:28:19;100841.06;;;18.08;50.85
38303;BME280;24103;42.454;27.400;2023-05-15T05:30:45;100842.19;;;18.05;51.20
38303;BME280;24103;42.454;27.400;2023-05-15T05:33:11;100850.41;;;18.14;51.12
38303;BME280;24103;42.454;27.400;2023-05-15T05:35:37;100861.81;;;18.37;51.41
38303;BME280;24103;42.454;27.400;2023-05-15T05:38:02;100858.00;;;18.39;51.73
38303;BME280;24103;42.454;27.400;2023-05-15T05:40:28;100854.81;;;18.46;51.79
38303;BME280;24103;42.454;27.400;2023-05-15T05:42:54;100862.38;;;18.40;51.46
38303;BME280;24103;42.454;27.400;2023-05-15T05:45:19;100857.88;;;18.41;50.84
38303;BME280;24103;42.454;27.400;2023-05-15T05:47:45;100856.97;;;18.52;50.64
38303;BME280;24103;42.454;27.400;2023-05-15T05:50:10;100849.91;;;18.51;50.48
38303;BME280;24103;42.454;27.400;2023-05-15T05:52:36;100844.53;;;18.51;51.34
38303;BME280;24103;42.454;27.400;2023-05-15T05:55:01;100848.41;;;18.58;51.78
38303;BME280;24103;42.454;27.400;2023-05-15T05:57:27;100847.00;;;18.64;51.77
38303;BME280;24103;42.454;27.400;2023-05-15T05:59:52;100835.47;;;18.63;51.55
38303;BME280;24103;42.454;27.400;2023-05-15T06:02:18;100825.34;;;18.67;51.20
38303;BME280;24103;42.454;27.400;2023-05-15T06:04:44;100817.44;;;18.96;50.89
38303;BME280;24103;42.454;27.400;2023-05-15T06:07:10;100821.72;;;19.28;50.28
38303;BME280;24103;42.454;27.400;2023-05-15T06:09:36;100812.88;;;19.76;48.76
38303;BME280;24103;42.454;27.400;2023-05-15T06:12:02;100811.63;;;20.37;47.46
38303;BME280;24103;42.454;27.400;2023-05-15T06:14:29;100815.81;;;21.15;45.78
38303;BME280;24103;42.454;27.400;2023-05-15T06:16:55;100828.91;;;21.46;43.20
38303;BME280;24103;42.454;27.400;2023-05-15T06:19:20;100838.66;;;22.01;42.56
38303;BME280;24103;42.454;27.400;2023-05-15T06:21:46;100831.19;;;22.39;42.55
38303;BME280;24103;42.454;27.400;2023-05-15T06:24:11;100831.69;;;22.60;41.79
38303;BME280;24103;42.454;27.400;2023-05-15T06:26:37;100831.31;;;22.98;41.40
38303;BME280;24103;42.454;27.400;2023-05-15T06:29:02;100814.22;;;23.07;40.34
38303;BME280;24103;42.454;27.400;2023-05-15T06:31:28;100810.56;;;24.23;39.74
38303;BME280;24103;42.454;27.400;2023-05-15T06:33:53;100813.69;;;26.38;36.99
38303;BME280;24103;42.454;27.400;2023-05-15T06:36:19;100795.19;;;27.45;34.50
38303;BME280;24103;42.454;27.400;2023-05-15T06:38:44;100782.84;;;27.42;33.17
38303;BME280;24103;42.454;27.400;2023-05-15T06:41:10;100784.00;;;27.33;33.68
38303;BME280;24103;42.454;27.400;2023-05-15T06:43:35;100777.56;;;28.82;31.95
38303;BME280;24103;42.454;27.400;2023-05-15T06:46:00;100763.84;;;30.30;29.99
38303;BME280;24103;42.454;27.400;2023-05-15T06:48:26;100753.56;;;31.62;28.05
38303;BME280;24103;42.454;27.400;2023-05-15T06:50:51;100748.66;;;32.51;26.47
38303;BME280;24103;42.454;27.400;2023-05-15T06:53:17;100753.41;;;32.00;26.79
38303;BME280;24103;42.454;27.400;2023-05-15T06:55:42;100751.38;;;30.68;27.48
38303;BME280;24103;42.454;27.400;2023-05-15T06:58:08;100748.22;;;29.26;28.49
38303;BME280;24103;42.454;27.400;2023-05-15T07:00:33;100739.44;;;29.64;28.73
38303;BME280;24103;42.454;27.400;2023-05-15T07:02:59;100741.19;;;28.90;29.28
38303;BME280;24103;42.454;27.400;2023-05-15T07:05:24;100730.41;;;27.63;31.01
38303;BME280;24103;42.454;27.400;2023-05-15T07:07:50;100742.03;;;26.92;32.04
38303;BME280;24103;42.454;27.400;2023-05-15T07:10:16;100758.00;;;27.02;32.61
38303;BME280;24103;42.454;27.400;2023-05-15T07:12:42;100757.44;;;27.28;32.12
38303;BME280;24103;42.454;27.400;2023-05-15T07:15:08;100755.78;;;27.12;32.78
38303;BME280;24103;42.454;27.400;2023-05-15T07:17:33;100751.03;;;27.14;33.33
38303;BME280;24103;42.454;27.400;2023-05-15T07:19:59;100748.84;;;28.59;32.11
38303;BME280;24103;42.454;27.400;2023-05-15T07:22:26;100751.44;;;30.55;29.24
38303;BME280;24103;42.454;27.400;2023-05-15T07:24:52;100741.22;;;30.30;29.75
38303;BME280;24103;42.454;27.400;2023-05-15T07:27:17;100745.06;;;29.35;31.96
38303;BME280;24103;42.454;27.400;2023-05-15T07:29:43;100743.72;;;29.04;32.18
38303;BME280;24103;42.454;27.400;2023-05-15T07:32:08;100734.81;;;28.62;32.68
38303;BME280;24103;42.454;27.400;2023-05-15T07:34:34;100742.75;;;28.57;32.72
38303;BME280;24103;42.454;27.400;2023-05-15T07:36:59;100737.13;;;29.47;32.57
38303;BME280;24103;42.454;27.400;2023-05-15T07:39:25;100741.91;;;29.38;30.59
38303;BME280;24103;42.454;27.400;2023-05-15T07:41:50;100745.91;;;29.29;32.68
38303;BME280;24103;42.454;27.400;2023-05-15T07:44:16;100746.13;;;28.66;34.63
38303;BME280;24103;42.454;27.400;2023-05-15T07:46:41;100752.78;;;28.22;34.98
38303;BME280;24103;42.454;27.400;2023-05-15T07:49:07;100762.06;;;27.77;35.57
38303;BME280;24103;42.454;27.400;2023-05-15T07:51:32;100771.63;;;27.73;36.47
38303;BME280;24103;42.454;27.400;2023-05-15T07:53:57;100765.56;;;27.07;37.26
38303;BME280;24103;42.454;27.400;2023-05-15T07:56:23;100766.19;;;26.72;39.26
38303;BME280;24103;42.454;27.400;2023-05-15T07:58:49;100771.13;;;27.20;38.40
38303;BME280;24103;42.454;27.400;2023-05-15T08:01:14;100761.16;;;26.69;38.80
38303;BME280;24103;42.454;27.400;2023-05-15T08:03:40;100774.22;;;26.06;39.93
38303;BME280;24103;42.454;27.400;2023-05-15T08:06:05;100779.38;;;24.77;42.16
38303;BME280;24103;42.454;27.400;2023-05-15T08:08:32;100766.63;;;24.46;43.24
38303;BME280;24103;42.454;27.400;2023-05-15T08:10:58;100772.53;;;24.58;44.50
38303;BME280;24103;42.454;27.400;2023-05-15T08:13:23;100776.91;;;23.86;46.23
38303;BME280;24103;42.454;27.400;2023-05-15T08:15:49;100787.16;;;23.50;48.77
38303;BME280;24103;42.454;27.400;2023-05-15T08:18:14;100786.50;;;22.89;51.68
38303;BME280;24103;42.454;27.400;2023-05-15T08:20:40;100778.84;;;22.68;53.86
38303;BME280;24103;42.454;27.400;2023-05-15T08:23:05;100786.34;;;22.90;54.37
38303;BME280;24103;42.454;27.400;2023-05-15T08:25:30;100780.34;;;23.13;53.47
38303;BME280;24103;42.454;27.400;2023-05-15T08:27:56;100787.47;;;23.30;52.70
38303;BME280;24103;42.454;27.400;2023-05-15T08:30:22;100792.06;;;23.63;52.70
38303;BME280;24103;42.454;27.400;2023-05-15T08:32:47;100775.75;;;24.37;50.57
38303;BME280;24103;42.454;27.400;2023-05-15T08:35:13;100769.31;;;23.90;51.15
38303;BME280;24103;42.454;27.400;2023-05-15T08:37:39;100778.72;;;23.28;53.11
38303;BME280;24103;42.454;27.400;2023-05-15T08:40:05;100777.97;;;23.02;54.98
38303;BME280;24103;42.454;27.400;2023-05-15T08:42:44;100776.03;;;22.77;54.15
38303;BME280;24103;42.454;27.400;2023-05-15T08:45:15;100772.81;;;22.74;56.33
38303;BME280;24103;42.454;27.400;2023-05-15T08:47:41;100780.47;;;22.26;56.39
38303;BME280;24103;42.454;27.400;2023-05-15T08:50:15;100791.41;;;22.24;58.19
38303;BME280;24103;42.454;27.400;2023-05-15T08:52:43;100789.34;;;21.74;61.37
38303;BME280;24103;42.454;27.400;2023-05-15T08:55:13;100786.66;;;21.74;62.48
38303;BME280;24103;42.454;27.400;2023-05-15T08:57:39;100780.53;;;21.82;61.74
38303;BME280;24103;42.454;27.400;2023-05-15T09:00:06;100786.69;;;22.26;60.66
38303;BME280;24103;42.454;27.400;2023-05-15T09:02:37;100794.81;;;21.28;62.31
38303;BME280;24103;42.454;27.400;2023-05-15T09:05:06;100795.44;;;21.40;62.70
38303;BME280;24103;42.454;27.400;2023-05-15T09:07:33;100789.44;;;21.64;61.80
38303;BME280;24103;42.454;27.400;2023-05-15T09:10:00;100786.88;;;21.45;62.97
38303;BME280;24103;42.454;27.400;2023-05-15T09:12:26;100792.84;;;21.48;63.59
38303;BME280;24103;42.454;27.400;2023-05-15T09:15:08;100782.38;;;21.27;63.60
38303;BME280;24103;42.454;27.400;2023-05-15T09:17:35;100791.00;;;21.03;65.01
38303;BME280;24103;42.454;27.400;2023-05-15T09:20:02;100795.66;;;20.83;66.24
38303;BME280;24103;42.454;27.400;2023-05-15T09:22:32;100795.34;;;20.86;67.72
38303;BME280;24103;42.454;27.400;2023-05-15T09:24:58;100791.03;;;20.38;69.97
38303;BME280;24103;42.454;27.400;2023-05-15T09:27:24;100792.22;;;20.53;71.11
38303;BME280;24103;42.454;27.400;2023-05-15T09:29:50;100779.44;;;20.75;69.66
38303;BME280;24103;42.454;27.400;2023-05-15T09:32:18;100782.44;;;21.17;69.24
38303;BME280;24103;42.454;27.400;2023-05-15T09:34:44;100782.13;;;21.03;67.27
38303;BME280;24103;42.454;27.400;2023-05-15T09:37:31;100790.84;;;21.05;68.10
38303;BME280;24103;42.454;27.400;2023-05-15T09:40:09;100781.69;;;21.61;66.07
38303;BME280;24103;42.454;27.400;2023-05-15T09:42:35;100779.00;;;22.05;62.44
38303;BME280;24103;42.454;27.400;2023-05-15T09:45:01;100783.56;;;22.66;59.18
38303;BME280;24103;42.454;27.400;2023-05-15T09:47:27;100778.56;;;22.79;58.68
38303;BME280;24103;42.454;27.400;2023-05-15T09:49:53;100779.66;;;22.60;57.95
38303;BME280;24103;42.454;27.400;2023-05-15T09:52:18;100776.94;;;22.52;58.47
38303;BME280;24103;42.454;27.400;2023-05-15T09:54:44;100774.00;;;22.37;59.95
38303;BME280;24103;42.454;27.400;2023-05-15T09:57:12;100770.44;;;22.71;61.86
38303;BME280;24103;42.454;27.400;2023-05-15T09:59:46;100759.47;;;23.07;57.44
38303;BME280;24103;42.454;27.400;2023-05-15T10:02:22;100763.22;;;22.37;58.04
38303;BME280;24103;42.454;27.400;2023-05-15T10:04:55;100760.94;;;22.24;59.55
38303;BME280;24103;42.454;27.400;2023-05-15T10:07:29;100755.53;;;21.89;60.22
38303;BME280;24103;42.454;27.400;2023-05-15T10:09:54;100758.16;;;21.81;64.09
38303;BME280;24103;42.454;27.400;2023-05-15T10:12:22;100761.78;;;21.18;63.66
38303;BME280;24103;42.454;27.400;2023-05-15T10:14:49;100772.66;;;20.80;65.71
38303;BME280;24103;42.454;27.400;2023-05-15T10:17:17;100762.63;;;20.35;70.25
38303;BME280;24103;42.454;27.400;2023-05-15T10:19:44;100768.19;;;20.24;72.01
38303;BME280;24103;42.454;27.400;2023-05-15T10:22:12;100766.59;;;20.41;74.34
38303;BME280;24103;42.454;27.400;2023-05-15T10:24:41;100768.47;;;20.68;74.38
38303;BME280;24103;42.454;27.400;2023-05-15T10:27:09;100774.84;;;20.85;70.18
38303;BME280;24103;42.454;27.400;2023-05-15T10:29:36;100773.38;;;21.01;72.42
38303;BME280;24103;42.454;27.400;2023-05-15T10:32:03;100764.94;;;20.58;72.18
38303;BME280;24103;42.454;27.400;2023-05-15T10:34:29;100766.22;;;20.64;75.65
38303;BME280;24103;42.454;27.400;2023-05-15T10:36:56;100769.09;;;20.80;72.99
38303;BME280;24103;42.454;27.400;2023-05-15T10:39:22;100768.63;;;20.57;74.13
38303;BME280;24103;42.454;27.400;2023-05-15T10:41:49;100763.00;;;20.50;76.44
38303;BME280;24103;42.454;27.400;2023-05-15T10:44:15;100758.00;;;20.65;75.96
38303;BME280;24103;42.454;27.400;2023-05-15T10:46:43;100760.06;;;20.81;74.15
38303;BME280;24103;42.454;27.400;2023-05-15T10:49:08;100763.13;;;20.49;73.36
38303;BME280;24103;42.454;27.400;2023-05-15T10:51:35;100753.06;;;20.33;77.07
38303;BME280;24103;42.454;27.400;2023-05-15T10:54:01;100754.91;;;20.60;77.33
38303;BME280;24103;42.454;27.400;2023-05-15T10:56:32;100752.19;;;21.15;71.18
38303;BME280;24103;42.454;27.400;2023-05-15T10:59:07;100752.19;;;21.15;70.38
38303;BME280;24103;42.454;27.400;2023-05-15T11:01:35;100765.91;;;20.67;72.39
38303;BME280;24103;42.454;27.400;2023-05-15T11:04:15;100749.91;;;20.37;75.71
38303;BME280;24103;42.454;27.400;2023-05-15T11:11:53;100758.00;;;19.80;75.32
38303;BME280;24103;42.454;27.400;2023-05-15T11:14:25;100729.06;;;19.25;80.80
38303;BME280;24103;42.454;27.400;2023-05-15T11:21:59;100747.81;;;19.64;74.99
38303;BME280;24103;42.454;27.400;2023-05-15T11:24:26;100748.97;;;19.52;78.12
38303;BME280;24103;42.454;27.400;2023-05-15T11:27:03;100744.44;;;19.82;75.45
38303;BME280;24103;42.454;27.400;2023-05-15T11:29:29;100745.41;;;19.91;72.97
38303;BME280;24103;42.454;27.400;2023-05-15T11:31:56;100738.41;;;19.31;75.90
38303;BME280;24103;42.454;27.400;2023-05-15T11:34:34;100748.97;;;19.52;76.18
38303;BME280;24103;42.454;27.400;2023-05-15T11:37:00;100739.34;;;19.10;75.73
38303;BME280;24103;42.454;27.400;2023-05-15T11:39:27;100744.28;;;18.95;75.74
38303;BME280;24103;42.454;27.400;2023-05-15T11:41:53;100733.22;;;18.79;76.54
38303;BME280;24103;42.454;27.400;2023-05-15T11:44:23;100753.16;;;18.55;77.73
38303;BME280;24103;42.454;27.400;2023-05-15T11:46:49;100740.97;;;18.82;76.44
38303;BME280;24103;42.454;27.400;2023-05-15T11:49:18;100735.13;;;18.98;75.34
38303;BME280;24103;42.454;27.400;2023-05-15T11:51:44;100724.88;;;19.42;73.02
38303;BME280;24103;42.454;27.400;2023-05-15T11:54:13;100726.13;;;19.38;71.61
38303;BME280;24103;42.454;27.400;2023-05-15T11:56:43;100715.69;;;19.45;74.10
38303;BME280;24103;42.454;27.400;2023-05-15T11:59:12;100722.16;;;19.72;71.97
38303;BME280;24103;42.454;27.400;2023-05-15T12:01:43;100714.09;;;19.72;70.09
38303;BME280;24103;42.454;27.400;2023-05-15T12:04:12;100702.38;;;19.82;73.12
38303;BME280;24103;42.454;27.400;2023-05-15T12:06:39;100697.84;;;20.30;69.26
38303;BME280;24103;42.454;27.400;2023-05-15T12:09:05;100703.75;;;19.96;67.84
38303;BME280;24103;42.454;27.400;2023-05-15T12:11:30;100691.97;;;19.60;68.60
38303;BME280;24103;42.454;27.400;2023-05-15T12:13:56;100681.25;;;19.50;71.28
38303;BME280;24103;42.454;27.400;2023-05-15T12:16:25;100685.09;;;19.38;70.17
38303;BME280;24103;42.454;27.400;2023-05-15T12:18:51;100678.34;;;18.94;71.57
38303;BME280;24103;42.454;27.400;2023-05-15T12:21:17;100683.56;;;19.15;71.42
38303;BME280;24103;42.454;27.400;2023-05-15T12:23:52;100679.53;;;18.71;72.47
38303;BME280;24103;42.454;27.400;2023-05-15T12:26:19;100679.53;;;18.81;73.92
38303;BME280;24103;42.454;27.400;2023-05-15T12:28:46;100674.34;;;18.69;75.98
38303;BME280;24103;42.454;27.400;2023-05-15T12:31:12;100675.50;;;18.36;80.84
38303;BME280;24103;42.454;27.400;2023-05-15T12:33:38;100682.72;;;18.45;80.80
38303;BME280;24103;42.454;27.400;2023-05-15T12:36:04;100681.22;;;18.72;81.60
38303;BME280;24103;42.454;27.400;2023-05-15T12:38:30;100685.69;;;18.42;83.73
38303;BME280;24103;42.454;27.400;2023-05-15T12:40:58;100692.03;;;18.51;86.16
38303;BME280;24103;42.454;27.400;2023-05-15T12:43:24;100670.03;;;18.37;85.18
38303;BME280;24103;42.454;27.400;2023-05-15T12:45:54;100691.91;;;18.62;81.85
38303;BME280;24103;42.454;27.400;2023-05-15T12:48:20;100700.41;;;18.77;80.34
38303;BME280;24103;42.454;27.400;2023-05-15T12:50:46;100690.59;;;18.97;79.04
38303;BME280;24103;42.454;27.400;2023-05-15T12:53:13;100676.38;;;19.06;79.29
38303;BME280;24103;42.454;27.400;2023-05-15T12:55:45;100680.31;;;19.22;77.96
38303;BME280;24103;42.454;27.400;2023-05-15T12:58:11;100690.03;;;19.13;81.12